Time;durP1;ratioP1;P1;durP2;ratioP2;P2;SDS_P1;SDS_P2;PMS_P1;PMS_P2;Temp;Humidity;BMP_temperature;BMP_pressure;BME280_temperature;BME280_humidity;BME280_pressure;Samples;Min_cycle;Max_cycle;Signal;HPM_P1;HPM_P2
2022/07/04 00:00:45;;;;;;;1.67;1.15;;;13.80;99.90;;;;;;5017276;28;20068;-74
2022/07/04 00:03:11;;;;;;;3.22;1.10;;;13.70;99.90;;;;;;5000848;28;20041;-74
2022/07/04 00:05:37;;;;;;;1.65;1.00;;;13.70;99.90;;;;;;5000863;28;20451;-74
2022/07/04 00:08:03;;;;;;;0.57;0.57;;;13.70;99.90;;;;;;5017100;28;20046;-73
2022/07/04 00:10:28;;;;;;;1.98;0.98;;;13.70;99.90;;;;;;5016960;28;20576;-73
2022/07/04 00:12:54;;;;;;;1.30;0.82;;;13.60;99.90;;;;;;5017251;28;20080;-74
2022/07/04 00:15:20;;;;;;;2.15;0.70;;;13.60;99.90;;;;;;5016824;28;20153;-73
2022/07/04 00:17:46;;;;;;;1.33;0.90;;;13.50;99.90;;;;;;5016937;28;20481;-73
2022/07/04 00:20:11;;;;;;;5.50;1.00;;;13.50;99.90;;;;;;5017095;28;20060;-73
2022/07/04 00:22:38;;;;;;;1.25;0.80;;;13.50;99.90;;;;;;5016457;28;20029;-73
2022/07/04 00:25:04;;;;;;;1.25;0.93;;;13.50;99.90;;;;;;5016497;28;20041;-73
2022/07/04 00:27:30;;;;;;;2.47;1.20;;;13.60;99.90;;;;;;5000670;28;20049;-73
2022/07/04 00:29:56;;;;;;;2.38;1.15;;;13.60;99.90;;;;;;5000403;28;20049;-73
2022/07/04 00:32:22;;;;;;;1.63;1.08;;;13.50;99.90;;;;;;5000621;28;20033;-74
2022/07/04 00:34:47;;;;;;;2.60;1.20;;;13.60;99.90;;;;;;5000153;28;20108;-73
2022/07/04 00:37:13;;;;;;;1.33;1.17;;;13.60;99.90;;;;;;5016523;28;20033;-73
2022/07/04 00:39:39;;;;;;;5.82;1.27;;;13.50;99.90;;;;;;5000185;28;20037;-73
2022/07/04 00:42:05;;;;;;;2.25;1.30;;;13.50;99.90;;;;;;5016433;28;20045;-74
2022/07/04 00:44:35;;;;;;;1.05;0.95;;;13.50;99.90;;;;;;5000060;28;20048;-73
2022/07/04 00:47:00;;;;;;;1.52;0.98;;;13.50;99.90;;;;;;5016263;28;20045;-73
2022/07/04 00:49:26;;;;;;;1.20;1.10;;;13.40;99.90;;;;;;5016312;28;20060;-73
2022/07/04 00:51:52;;;;;;;1.85;1.23;;;13.50;99.90;;;;;;4984025;28;20049;-74
2022/07/04 00:54:18;;;;;;;2.13;1.05;;;13.40;99.90;;;;;;4983637;28;20099;-73
2022/07/04 00:56:45;;;;;;;0.80;0.80;;;13.40;99.90;;;;;;4983803;28;20041;-73
2022/07/04 00:59:12;;;;;;;2.05;1.13;;;13.40;99.90;;;;;;5016155;28;20144;-73
2022/07/04 01:01:38;;;;;;;0.88;0.75;;;13.40;99.90;;;;;;5016090;28;20045;-73
2022/07/04 01:04:05;;;;;;;1.52;1.02;;;13.30;99.90;;;;;;4999708;28;20088;-74
2022/07/04 01:06:32;;;;;;;2.08;1.05;;;13.30;99.90;;;;;;4983858;28;20481;-73
2022/07/04 01:08:59;;;;;;;1.25;0.90;;;13.30;99.90;;;;;;4999418;28;20045;-73
2022/07/04 01:11:24;;;;;;;1.30;0.77;;;13.30;99.90;;;;;;4999827;28;20413;-73
2022/07/04 01:13:50;;;;;;;1.25;0.95;;;13.80;99.90;;;;;;5015765;28;20042;-73
2022/07/04 01:16:15;;;;;;;1.58;1.10;;;13.20;99.90;;;;;;5015920;28;20041;-73
2022/07/04 01:18:41;;;;;;;2.25;1.17;;;13.40;99.90;;;;;;4999769;28;20038;-74
2022/07/04 01:21:08;;;;;;;1.02;0.90;;;13.60;99.90;;;;;;4999678;28;20041;-73
2022/07/04 01:23:41;;;;;;;2.08;0.73;;;13.20;99.90;;;;;;4999372;28;20037;-73
2022/07/04 01:26:07;;;;;;;1.50;1.10;;;13.10;99.90;;;;;;5015636;28;20184;-73
2022/07/04 01:28:33;;;;;;;2.05;1.02;;;13.00;99.90;;;;;;5015880;28;20044;-74
2022/07/04 01:30:59;;;;;;;2.15;1.00;;;13.60;99.90;;;;;;4999541;28;20397;-74
2022/07/04 01:33:25;;;;;;;1.50;1.08;;;13.00;99.90;;;;;;4999110;28;20041;-73
2022/07/04 01:35:50;;;;;;;3.22;1.10;;;13.00;99.90;;;;;;4998932;28;20507;-73
2022/07/04 01:38:16;;;;;;;2.35;1.20;;;13.40;99.90;;;;;;4999239;28;20403;-73
2022/07/04 01:40:42;;;;;;;1.48;1.15;;;13.00;99.90;;;;;;4999074;28;20091;-73
2022/07/04 01:43:08;;;;;;;5.18;1.63;;;13.00;99.90;;;;;;5015421;28;20120;-73
2022/07/04 01:45:37;;;;;;;1.30;1.15;;;13.00;99.90;;;;;;5015379;28;20095;-73
2022/07/04 01:48:09;;;;;;;1.63;1.00;;;13.00;99.90;;;;;;5015383;28;20050;-73
2022/07/04 01:50:35;;;;;;;2.13;1.10;;;12.90;99.90;;;;;;4998958;28;20045;-73
2022/07/04 01:53:01;;;;;;;4.43;1.20;;;12.90;99.90;;;;;;5015260;28;20045;-73
2022/07/04 01:55:27;;;;;;;1.92;1.38;;;12.90;99.90;;;;;;5015193;28;20072;-73
2022/07/04 01:57:53;;;;;;;1.67;1.40;;;12.90;99.90;;;;;;4998948;28;20048;-73
2022/07/04 02:03:03;;;;;;;3.03;1.13;;;12.90;99.90;;;;;;4988012;28;20040;-72
2022/07/04 02:05:28;;;;;;;3.63;1.60;;;12.90;99.90;;;;;;5015104;28;20041;-73
2022/07/04 02:07:54;;;;;;;2.33;1.35;;;12.90;99.90;;;;;;5015103;28;20045;-73
2022/07/04 02:10:20;;;;;;;3.00;1.23;;;13.10;99.90;;;;;;4998784;28;20057;-73
2022/07/04 02:13:01;;;;;;;3.97;1.45;;;12.90;99.90;;;;;;5015045;28;20578;-73
2022/07/04 02:15:35;;;;;;;1.95;1.20;;;12.90;99.90;;;;;;5015070;28;20053;-72
2022/07/04 02:18:02;;;;;;;2.47;1.58;;;12.90;99.90;;;;;;5015017;28;20041;-72
2022/07/04 02:20:28;;;;;;;3.00;1.50;;;12.90;99.90;;;;;;4998695;28;20048;-72
2022/07/04 02:22:55;;;;;;;4.38;1.90;;;12.90;99.90;;;;;;4998880;28;20389;-73
2022/07/04 02:25:20;;;;;;;2.13;1.67;;;12.90;99.90;;;;;;5015242;28;20562;-72
2022/07/04 02:27:46;;;;;;;2.63;1.73;;;12.80;99.90;;;;;;4998613;28;20080;-73
2022/07/04 02:30:13;;;;;;;2.38;1.50;;;12.80;99.90;;;;;;4998726;28;20183;-72
2022/07/04 02:32:39;;;;;;;2.67;1.83;;;12.80;99.90;;;;;;4998638;28;20042;-72
2022/07/04 02:35:05;;;;;;;2.85;1.83;;;12.80;99.90;;;;;;5014825;28;20034;-72
2022/07/04 02:37:31;;;;;;;3.35;1.50;;;12.80;99.90;;;;;;4998509;28;20037;-72
2022/07/04 02:39:56;;;;;;;3.53;1.85;;;12.80;99.90;;;;;;5014903;28;20396;-72
2022/07/04 02:42:22;;;;;;;2.92;1.90;;;12.80;99.90;;;;;;4982580;28;20037;-73
2022/07/04 02:44:48;;;;;;;2.65;1.75;;;12.70;99.90;;;;;;4998532;28;20041;-73
2022/07/04 02:47:15;;;;;;;3.72;1.90;;;12.80;99.90;;;;;;5016587;28;20052;-73
2022/07/04 02:49:40;;;;;;;3.53;2.10;;;12.70;99.90;;;;;;5018494;28;20045;-73
2022/07/04 02:52:06;;;;;;;3.53;2.20;;;12.70;99.90;;;;;;5002131;28;20390;-72
2022/07/04 02:54:32;;;;;;;3.30;1.90;;;12.70;99.90;;;;;;4986410;28;20044;-72
2022/07/04 02:56:58;;;;;;;2.60;1.35;;;12.70;99.90;;;;;;5018719;28;20076;-72
2022/07/04 02:59:23;;;;;;;4.93;2.25;;;12.70;99.90;;;;;;5002073;28;20087;-73
2022/07/04 03:01:49;;;;;;;2.60;1.83;;;12.70;99.90;;;;;;5002074;28;20040;-72
2022/07/04 03:04:15;;;;;;;3.70;2.08;;;12.70;99.90;;;;;;4985977;28;20452;-72
2022/07/04 03:06:42;;;;;;;3.20;1.92;;;12.70;99.90;;;;;;5018517;28;20041;-72
2022/07/04 03:09:09;;;;;;;3.85;2.10;;;12.90;99.90;;;;;;5001668;28;20153;-73
2022/07/04 03:11:35;;;;;;;3.97;1.92;;;12.60;99.90;;;;;;5018165;28;20049;-72
2022/07/04 03:14:01;;;;;;;3.80;2.38;;;12.70;99.90;;;;;;5001723;28;20051;-72
2022/07/04 03:16:26;;;;;;;2.80;1.65;;;12.60;99.90;;;;;;4985868;28;20524;-72
2022/07/04 03:18:52;;;;;;;4.65;1.98;;;12.60;99.90;;;;;;5001628;28;20386;-72
2022/07/04 03:21:18;;;;;;;2.85;2.00;;;12.70;99.90;;;;;;5018034;28;20489;-72
2022/07/04 03:23:57;;;;;;;5.47;2.42;;;12.60;99.90;;;;;;5001909;28;20080;-72
2022/07/04 03:26:24;;;;;;;4.20;2.22;;;12.90;99.90;;;;;;5018136;28;20527;-72
2022/07/04 03:28:49;;;;;;;3.45;2.20;;;12.60;99.90;;;;;;5018122;28;20396;-72
2022/07/04 03:31:15;;;;;;;4.85;2.75;;;12.60;99.90;;;;;;5017879;28;20041;-73
2022/07/04 03:33:41;;;;;;;4.40;2.13;;;12.70;99.90;;;;;;5017733;28;20042;-72
2022/07/04 03:36:06;;;;;;;3.30;2.13;;;12.60;99.90;;;;;;5001388;28;20045;-72
2022/07/04 03:38:32;;;;;;;3.85;2.28;;;12.60;99.90;;;;;;5001430;28;20043;-72
2022/07/04 03:40:58;;;;;;;3.63;2.30;;;12.60;99.90;;;;;;5001354;28;20407;-72
2022/07/04 03:43:23;;;;;;;4.13;1.90;;;13.10;99.90;;;;;;5017602;28;20551;-72
2022/07/04 03:45:49;;;;;;;2.60;1.92;;;12.70;99.90;;;;;;5001175;28;20382;-72
2022/07/04 03:48:15;;;;;;;7.13;2.25;;;12.70;99.90;;;;;;5017538;28;20072;-72
2022/07/04 03:50:40;;;;;;;4.32;2.67;;;12.70;99.90;;;;;;5001118;28;20045;-72
2022/07/04 03:53:06;;;;;;;3.42;2.00;;;12.70;99.90;;;;;;5001062;28;20124;-72
2022/07/04 03:55:32;;;;;;;3.33;1.98;;;12.80;99.90;;;;;;4984690;28;20516;-73
2022/07/04 03:57:57;;;;;;;4.28;2.03;;;12.80;99.90;;;;;;5017059;28;20038;-72
2022/07/04 04:00:23;;;;;;;3.38;2.17;;;12.80;99.90;;;;;;5017406;28;20033;-72
2022/07/04 04:02:49;;;;;;;4.20;2.50;;;12.80;99.90;;;;;;5017506;28;20045;-72
2022/07/04 04:05:26;;;;;;;3.67;2.40;;;12.80;99.90;;;;;;5000909;28;20041;-72
2022/07/04 04:08:02;;;;;;;3.22;2.08;;;12.80;99.90;;;;;;5017109;28;20049;-72
2022/07/04 04:10:30;;;;;;;4.25;2.08;;;13.10;99.90;;;;;;5013638;28;20133;-72
2022/07/04 04:12:57;;;;;;;4.00;2.35;;;12.90;99.90;;;;;;5013758;28;20049;-72
2022/07/04 04:15:23;;;;;;;2.42;2.00;;;12.90;99.90;;;;;;5013687;28;20509;-72
2022/07/04 04:17:49;;;;;;;4.57;2.35;;;12.90;99.90;;;;;;4997556;28;20144;-72
2022/07/04 04:20:15;;;;;;;4.90;2.50;;;13.00;99.90;;;;;;5013585;28;20061;-72
2022/07/04 04:22:40;;;;;;;5.93;2.55;;;13.00;99.90;;;;;;5013566;28;20103;-72
2022/07/04 04:25:07;;;;;;;3.35;2.05;;;13.00;99.90;;;;;;5013477;28;20460;-72
2022/07/04 04:27:32;;;;;;;4.50;2.00;;;13.10;99.90;;;;;;5013724;28;20108;-72
2022/07/04 04:29:58;;;;;;;3.33;2.45;;;13.20;99.90;;;;;;5013691;28;20045;-73
2022/07/04 04:32:24;;;;;;;2.67;1.73;;;13.20;99.90;;;;;;4997367;28;20085;-72
2022/07/04 04:34:49;;;;;;;2.83;2.13;;;13.30;99.90;;;;;;4997033;28;20042;-72
2022/07/04 04:37:15;;;;;;;3.83;2.17;;;13.40;99.90;;;;;;5013257;28;20049;-73
2022/07/04 04:39:41;;;;;;;2.63;1.98;;;13.40;99.90;;;;;;5013154;28;20042;-72
2022/07/04 04:42:06;;;;;;;4.43;2.60;;;13.50;99.90;;;;;;4996813;28;20038;-72
2022/07/04 04:44:32;;;;;;;6.10;2.65;;;13.50;99.90;;;;;;5013163;28;20045;-72
2022/07/04 04:46:58;;;;;;;3.13;2.47;;;13.60;99.90;;;;;;5013396;28;20433;-72
2022/07/04 04:49:23;;;;;;;3.33;2.15;;;14.00;99.90;;;;;;5013063;28;20085;-73
2022/07/04 04:51:49;;;;;;;3.35;2.30;;;13.80;99.90;;;;;;4996916;28;20053;-73
2022/07/04 04:54:15;;;;;;;3.92;2.22;;;13.90;99.90;;;;;;5012848;28;20037;-72
2022/07/04 04:56:40;;;;;;;5.35;2.50;;;14.00;99.90;;;;;;5012895;28;20045;-72
2022/07/04 04:59:07;;;;;;;5.45;2.45;;;14.10;99.90;;;;;;5013114;28;20508;-72
2022/07/04 05:01:34;;;;;;;2.35;1.92;;;14.60;99.90;;;;;;5012849;28;20053;-72
2022/07/04 05:03:59;;;;;;;5.47;2.35;;;14.30;99.90;;;;;;5012775;28;20077;-72
2022/07/04 05:06:25;;;;;;;3.47;2.40;;;14.40;99.90;;;;;;4996454;28;20073;-73
2022/07/04 05:08:51;;;;;;;4.15;2.63;;;14.50;99.90;;;;;;5013352;28;20041;-72
2022/07/04 05:11:16;;;;;;;4.25;2.35;;;14.70;99.90;;;;;;4999375;28;20076;-72
2022/07/04 05:13:42;;;;;;;3.63;2.22;;;14.60;99.90;;;;;;4983299;28;20515;-72
2022/07/04 05:16:08;;;;;;;4.85;2.40;;;14.60;99.90;;;;;;5015863;28;20034;-73
2022/07/04 05:18:33;;;;;;;4.05;2.35;;;14.60;99.90;;;;;;4999481;28;20034;-73
2022/07/04 05:20:59;;;;;;;5.75;2.47;;;14.70;99.90;;;;;;5015774;28;20037;-72
2022/07/04 05:23:25;;;;;;;3.20;2.20;;;14.80;99.90;;;;;;5015720;28;20064;-73
2022/07/04 05:25:51;;;;;;;6.40;2.58;;;14.90;99.90;;;;;;5015684;28;20049;-72
2022/07/04 05:28:16;;;;;;;5.50;2.65;;;15.40;99.90;;;;;;4983206;28;20049;-73
2022/07/04 05:30:42;;;;;;;2.60;2.00;;;15.00;99.90;;;;;;4999568;28;20076;-73
2022/07/04 05:33:08;;;;;;;3.67;2.60;;;15.10;99.90;;;;;;5015546;28;20432;-75
2022/07/04 05:35:34;;;;;;;3.08;2.35;;;15.20;99.90;;;;;;4999134;28;20045;-72
2022/07/04 05:38:00;;;;;;;4.90;3.03;;;15.30;99.90;;;;;;5015465;28;20045;-71
2022/07/04 05:40:26;;;;;;;3.47;2.53;;;15.40;99.90;;;;;;4999046;28;20382;-71
2022/07/04 05:42:52;;;;;;;5.13;2.42;;;15.50;99.90;;;;;;4999046;28;20045;-69
2022/07/04 05:45:17;;;;;;;3.75;2.40;;;15.60;99.90;;;;;;4999058;28;20519;-73
2022/07/04 05:47:46;;;;;;;3.33;2.47;;;15.70;99.90;;;;;;4998842;28;20049;-71
2022/07/04 05:50:12;;;;;;;5.03;2.83;;;15.80;99.90;;;;;;4998873;28;20045;-69
2022/07/04 05:52:38;;;;;;;4.80;2.63;;;15.90;99.90;;;;;;5015400;28;20543;-69
2022/07/04 05:55:04;;;;;;;5.40;2.60;;;15.90;99.90;;;;;;5015178;28;20037;-69
2022/07/04 05:57:29;;;;;;;4.28;1.90;;;16.00;99.90;;;;;;4998922;28;20037;-69
2022/07/04 05:59:55;;;;;;;5.25;2.65;;;16.10;99.90;;;;;;5015215;28;20094;-70
2022/07/04 06:02:21;;;;;;;3.20;2.38;;;16.20;99.90;;;;;;5015361;28;20045;-72
2022/07/04 06:04:47;;;;;;;2.85;2.20;;;16.30;99.90;;;;;;4998977;28;20128;-72
2022/07/04 06:07:12;;;;;;;3.72;2.13;;;16.40;99.90;;;;;;4998789;28;20451;-71
2022/07/04 06:09:38;;;;;;;7.97;2.20;;;16.50;99.90;;;;;;4995174;28;20109;-71
2022/07/04 06:12:05;;;;;;;6.05;2.20;;;16.60;99.90;;;;;;5011990;28;20108;-71
2022/07/04 06:14:31;;;;;;;3.20;1.90;;;16.70;99.90;;;;;;5011814;28;20052;-72
2022/07/04 06:16:56;;;;;;;3.13;2.00;;;16.60;99.90;;;;;;5011929;28;20046;-73
2022/07/04 06:19:22;;;;;;;2.95;1.95;;;16.80;99.90;;;;;;5011670;28;20116;-82
2022/07/04 06:21:48;;;;;;;4.78;1.83;;;16.90;99.90;;;;;;4997793;28;20069;-81
2022/07/04 06:24:14;;;;;;;3.53;2.13;;;16.90;99.90;;;;;;4999674;28;20042;-81
2022/07/04 06:26:40;;;;;;;6.03;2.33;;;17.00;99.90;;;;;;5015588;28;20041;-82
2022/07/04 06:29:05;;;;;;;2.63;1.58;;;17.00;99.90;;;;;;4999558;28;20513;-72
2022/07/04 06:31:31;;;;;;;2.28;1.70;;;17.40;99.90;;;;;;4999622;28;20049;-72
2022/07/04 06:36:41;;;;;;;3.28;1.67;;;17.10;99.90;;;;;;5015356;28;20042;-72
2022/07/04 06:39:07;;;;;;;3.17;2.05;;;17.10;99.90;;;;;;5015388;28;20489;-71
2022/07/04 06:41:33;;;;;;;1.67;1.05;;;17.10;99.90;;;;;;5015365;28;20440;-73
2022/07/04 06:43:59;;;;;;;1.77;1.45;;;17.50;99.90;;;;;;5015413;28;20413;-72
2022/07/04 06:46:25;;;;;;;2.90;1.80;;;17.90;99.90;;;;;;5015340;28;20045;-71
2022/07/04 06:48:50;;;;;;;2.25;1.42;;;17.80;99.90;;;;;;5015536;28;20046;-72
2022/07/04 06:51:16;;;;;;;3.20;1.33;;;17.60;99.90;;;;;;4999268;28;20176;-71
2022/07/04 06:53:42;;;;;;;1.67;1.27;;;17.50;99.90;;;;;;4998847;28;20045;-71
2022/07/04 06:56:08;;;;;;;3.03;1.38;;;17.70;99.90;;;;;;4999114;28;20475;-72
2022/07/04 06:58:33;;;;;;;4.03;1.63;;;17.90;99.90;;;;;;5015145;28;20040;-71
2022/07/04 07:00:59;;;;;;;2.67;1.35;;;17.90;99.90;;;;;;5015046;28;20508;-72
2022/07/04 07:03:27;;;;;;;2.83;1.30;;;18.10;99.90;;;;;;5015304;28;20088;-72
2022/07/04 07:05:52;;;;;;;1.67;1.20;;;18.00;99.90;;;;;;4998641;28;20124;-72
2022/07/04 07:08:18;;;;;;;2.88;1.77;;;18.20;99.90;;;;;;5014997;28;20124;-71
2022/07/04 07:10:44;;;;;;;2.45;1.25;;;18.20;99.90;;;;;;5032654;28;20057;-71
2022/07/04 07:13:10;;;;;;;1.85;1.45;;;18.30;99.90;;;;;;5018203;28;20084;-72
2022/07/04 07:15:36;;;;;;;2.08;1.30;;;18.30;99.90;;;;;;5001769;28;20416;-72
2022/07/04 07:18:03;;;;;;;2.15;1.20;;;18.70;99.90;;;;;;5018419;28;20054;-72
2022/07/04 07:20:28;;;;;;;3.08;1.45;;;18.80;99.90;;;;;;5018053;28;20055;-71
2022/07/04 07:22:54;;;;;;;2.67;1.23;;;18.70;99.90;;;;;;5035752;28;20116;-71
2022/07/04 07:25:20;;;;;;;4.00;1.48;;;18.70;99.90;;;;;;5017975;28;20515;-71
2022/07/04 07:27:45;;;;;;;2.25;1.33;;;18.70;99.90;;;;;;5001571;28;20159;-72
2022/07/04 07:30:11;;;;;;;4.13;2.13;;;18.80;99.90;;;;;;5001585;28;20476;-72
2022/07/04 07:32:37;;;;;;;4.20;1.63;;;18.90;99.90;;;;;;5017257;28;20045;-71
2022/07/04 07:35:03;;;;;;;1.77;1.40;;;19.20;99.90;;;;;;5017767;28;20412;-72
2022/07/04 07:37:31;;;;;;;2.30;1.50;;;19.30;99.90;;;;;;5017673;28;20049;-71
2022/07/04 07:39:57;;;;;;;2.83;1.15;;;19.10;99.90;;;;;;5001654;28;20041;-72
2022/07/04 07:42:24;;;;;;;3.53;1.40;;;19.20;99.90;;;;;;5017594;28;20042;-71
2022/07/04 07:44:50;;;;;;;1.98;1.35;;;19.30;99.90;;;;;;5017608;28;20037;-71
2022/07/04 07:47:15;;;;;;;3.78;1.48;;;19.90;99.90;;;;;;5017579;28;20041;-71
2022/07/04 07:49:42;;;;;;;3.97;1.17;;;19.50;99.90;;;;;;5017650;28;20509;-71
2022/07/04 07:52:08;;;;;;;1.17;1.00;;;19.40;99.90;;;;;;5017532;28;20037;-71
2022/07/04 07:54:34;;;;;;;1.85;1.20;;;19.30;99.90;;;;;;5017335;28;20052;-70
2022/07/04 07:57:00;;;;;;;2.53;1.38;;;19.20;99.90;;;;;;5017340;28;20037;-70
2022/07/04 07:59:25;;;;;;;2.85;1.27;;;19.20;99.90;;;;;;5017306;28;20052;-71
2022/07/04 08:01:51;;;;;;;3.03;1.63;;;19.30;99.90;;;;;;5017220;28;20057;-71
2022/07/04 08:04:35;;;;;;;3.08;1.60;;;19.30;99.90;;;;;;5017108;28;20045;-71
2022/07/04 08:07:06;;;;;;;4.22;1.30;;;19.60;99.90;;;;;;5017253;28;20052;-71
2022/07/04 08:09:32;;;;;;;1.67;1.15;;;19.60;99.90;;;;;;5017018;28;20394;-71
2022/07/04 08:11:58;;;;;;;2.47;1.40;;;19.50;99.90;;;;;;5017081;28;20061;-71
2022/07/04 08:14:24;;;;;;;2.95;1.10;;;19.40;99.90;;;;;;5017007;28;20390;-71
2022/07/04 08:16:50;;;;;;;3.75;1.10;;;19.50;99.90;;;;;;5016979;28;20052;-70
2022/07/04 08:19:16;;;;;;;1.48;1.05;;;19.30;99.90;;;;;;5000607;28;20064;-71
2022/07/04 08:21:41;;;;;;;1.80;1.10;;;19.50;99.90;;;;;;5016841;28;20417;-71
2022/07/04 08:24:07;;;;;;;1.67;0.95;;;19.70;99.90;;;;;;5016829;28;20037;-70
2022/07/04 08:26:33;;;;;;;1.83;1.30;;;19.70;99.90;;;;;;5016729;28;20150;-71
2022/07/04 08:28:59;;;;;;;2.50;1.20;;;19.70;99.90;;;;;;5016650;28;20052;-71
2022/07/04 08:31:28;;;;;;;1.60;0.95;;;19.90;99.90;;;;;;5016976;28;20404;-71
2022/07/04 08:33:54;;;;;;;1.65;0.90;;;20.00;99.90;;;;;;5000530;28;20516;-72
2022/07/04 08:36:19;;;;;;;2.95;1.30;;;20.10;99.90;;;;;;5000340;28;20038;-71
2022/07/04 08:38:45;;;;;;;3.47;0.93;;;20.30;99.90;;;;;;5016714;28;20453;-72
2022/07/04 08:41:14;;;;;;;2.70;0.93;;;20.50;99.90;;;;;;5016513;28;20116;-72
2022/07/04 08:43:41;;;;;;;1.50;0.55;;;20.40;99.90;;;;;;5015922;28;20120;-72
2022/07/04 08:46:09;;;;;;;1.83;0.43;;;20.50;99.90;;;;;;4999755;28;20033;-72
2022/07/04 08:48:38;;;;;;;1.65;0.90;;;20.60;99.90;;;;;;5016585;28;20048;-71
2022/07/04 08:51:16;;;;;;;1.25;0.60;;;20.70;99.90;;;;;;5000018;28;20129;-71
2022/07/04 08:53:57;;;;;;;1.52;0.70;;;20.90;99.90;;;;;;5016056;28;20073;-72
2022/07/04 08:59:09;;;;;;;2.33;1.00;;;21.10;99.90;;;;;;5016339;28;20493;-72
2022/07/04 09:01:36;;;;;;;2.58;0.90;;;21.30;99.90;;;;;;4999746;28;20041;-72
2022/07/04 09:04:03;;;;;;;4.20;0.95;;;21.30;99.90;;;;;;5016106;28;20188;-72
2022/07/04 09:06:31;;;;;;;1.70;0.85;;;21.40;99.90;;;;;;5016004;28;20068;-71
2022/07/04 09:08:56;;;;;;;1.23;0.85;;;21.40;99.90;;;;;;5015881;28;20075;-71
2022/07/04 09:11:22;;;;;;;0.40;0.40;;;21.50;99.90;;;;;;5034009;28;20116;-71
2022/07/04 09:13:48;;;;;;;1.60;0.47;;;21.50;99.90;;;;;;5015823;28;20037;-71
2022/07/04 09:16:14;;;;;;;1.70;0.65;;;21.30;99.90;;;;;;5016154;28;20431;-70
2022/07/04 09:18:40;;;;;;;1.52;0.88;;;21.20;99.90;;;;;;4999465;28;20099;-70
2022/07/04 09:21:08;;;;;;;1.33;0.60;;;20.90;99.90;;;;;;4999507;28;20045;-71
2022/07/04 09:23:36;;;;;;;0.95;0.47;;;20.60;99.90;;;;;;5033415;28;20049;-71
2022/07/04 09:26:21;;;;;;;1.02;0.50;;;20.60;99.90;;;;;;5015778;28;20076;-71
2022/07/04 09:28:59;;;;;;;1.55;0.70;;;20.20;99.90;;;;;;5015644;28;20038;-71
2022/07/04 09:31:29;;;;;;;0.98;0.70;;;20.00;99.90;;;;;;5015649;28;20060;-71
2022/07/04 09:34:02;;;;;;;1.73;0.80;;;19.70;99.90;;;;;;5015796;28;20477;-71
2022/07/04 09:36:30;;;;;;;0.65;0.50;;;19.70;99.90;;;;;;5015604;28;20453;-71
2022/07/04 09:39:20;;;;;;;3.17;0.70;;;19.50;99.90;;;;;;5015500;28;20049;-71
2022/07/04 09:42:02;;;;;;;2.53;0.90;;;19.60;99.90;;;;;;4999325;28;20481;-75
2022/07/04 09:44:45;;;;;;;1.15;0.57;;;19.80;99.90;;;;;;4998996;28;20123;-71
2022/07/04 09:47:24;;;;;;;0.60;0.52;;;20.10;99.90;;;;;;5015433;28;20386;-82
2022/07/04 09:50:09;;;;;;;0.40;0.40;;;20.50;99.90;;;;;;5016368;28;20045;-83
2022/07/04 09:53:05;;;;;;;0.82;0.77;;;20.70;99.90;;;;;;4998943;28;20041;-82
2022/07/04 09:55:38;;;;;;;1.58;0.60;;;21.10;99.90;;;;;;5002806;28;20096;-71
2022/07/04 09:58:12;;;;;;;0.65;0.60;;;21.30;99.90;;;;;;5015291;28;20111;-72
2022/07/04 10:00:48;;;;;;;0.82;0.60;;;21.20;99.90;;;;;;5015298;28;20045;-79
2022/07/04 10:03:29;;;;;;;0.85;0.60;;;21.20;99.90;;;;;;5015226;28;20043;-72
2022/07/04 10:06:10;;;;;;;0.68;0.40;;;21.20;99.90;;;;;;5015443;28;20037;-74
2022/07/04 10:08:37;;;;;;;3.28;0.45;;;21.50;99.90;;;;;;5015061;28;20049;-72
2022/07/04 10:11:04;;;;;;;0.60;0.47;;;21.70;99.90;;;;;;5011639;28;20473;-73
2022/07/04 10:13:30;;;;;;;0.30;0.30;;;21.40;99.90;;;;;;4995529;28;20129;-72
2022/07/04 10:15:57;;;;;;;0.98;0.50;;;21.50;99.90;;;;;;5011740;28;20050;-73
2022/07/04 10:18:24;;;;;;;0.52;0.40;;;21.60;99.90;;;;;;5011725;28;20037;-72
2022/07/04 10:20:52;;;;;;;0.93;0.50;;;21.60;99.90;;;;;;4995630;28;20523;-73
2022/07/04 10:23:20;;;;;;;0.10;0.10;;;21.80;99.90;;;;;;5011694;28;20085;-72
2022/07/04 10:25:50;;;;;;;0.95;0.65;;;21.80;99.90;;;;;;5011632;28;20124;-72
2022/07/04 10:28:17;;;;;;;0.63;0.38;;;21.80;99.90;;;;;;4995498;28;20046;-71
2022/07/04 10:30:47;;;;;;;3.70;0.57;;;22.00;99.90;;;;;;5011901;28;20133;-72
2022/07/04 10:33:13;;;;;;;4.05;0.60;;;21.90;99.90;;;;;;5011871;28;20481;-73
2022/07/04 10:36:02;;;;;;;1.20;0.40;;;22.00;99.90;;;;;;5012108;28;20054;-72
2022/07/04 10:38:34;;;;;;;0.13;0.10;;;22.00;99.90;;;;;;5011801;28;20038;-77
2022/07/04 10:41:05;;;;;;;0.25;0.25;;;22.10;99.90;;;;;;4995620;28;20049;-82
2022/07/04 10:43:34;;;;;;;0.85;0.45;;;22.20;99.90;;;;;;4995583;28;20097;-85
2022/07/04 10:46:05;;;;;;;0.40;0.40;;;22.30;99.90;;;;;;5011797;28;20084;-85
2022/07/04 10:48:31;;;;;;;0.40;0.40;;;22.20;99.90;;;;;;4995938;28;20046;-86
2022/07/04 10:51:03;;;;;;;0.60;0.50;;;22.10;99.90;;;;;;5011651;28;20046;-86
2022/07/04 10:53:30;;;;;;;1.88;0.40;;;22.00;99.90;;;;;;4995321;28;20042;-86
2022/07/04 10:56:14;;;;;;;1.65;0.47;;;21.80;99.90;;;;;;4995274;28;20054;-86
2022/07/04 10:58:42;;;;;;;0.40;0.40;;;21.80;99.90;;;;;;5011589;28;20034;-87
2022/07/04 11:01:16;;;;;;;0.30;0.20;;;21.90;99.90;;;;;;4995274;28;20045;-86
2022/07/04 11:03:49;;;;;;;1.25;0.50;;;22.00;99.90;;;;;;4995457;28;20464;-85
2022/07/04 11:06:32;;;;;;;0.85;0.57;;;22.10;99.90;;;;;;4995523;28;20477;-86
2022/07/04 11:09:10;;;;;;;0.88;0.52;;;22.20;99.90;;;;;;5016257;28;20401;-85
2022/07/04 11:11:50;;;;;;;0.60;0.38;;;22.10;99.90;;;;;;5002126;28;20042;-86
2022/07/04 11:14:36;;;;;;;0.87;0.53;;;22.10;99.90;;;;;;5002580;28;20120;-90
2022/07/04 11:17:13;;;;;;;0.65;0.45;;;22.00;99.90;;;;;;5001604;28;20042;-78
2022/07/04 11:19:41;;;;;;;0.82;0.60;;;22.00;99.90;;;;;;5018954;28;20034;-84
2022/07/04 11:22:10;;;;;;;0.75;0.40;;;22.00;99.90;;;;;;5002051;28;20041;-86
2022/07/04 11:24:38;;;;;;;0.77;0.57;;;22.10;99.90;;;;;;5017878;28;20064;-78
2022/07/04 11:27:07;;;;;;;0.80;0.60;;;22.10;99.90;;;;;;5001696;28;20468;-87
2022/07/04 11:29:34;;;;;;;0.82;0.60;;;21.90;99.90;;;;;;5018229;28;20048;-86
2022/07/04 11:32:00;;;;;;;1.55;0.50;;;21.60;99.90;;;;;;5002163;28;20092;-85
2022/07/04 11:34:31;;;;;;;0.40;0.40;;;21.30;99.90;;;;;;5017881;28;20088;-81
2022/07/04 11:36:58;;;;;;;0.47;0.40;;;21.30;99.90;;;;;;5017890;28;20041;-87
2022/07/04 11:39:24;;;;;;;0.63;0.50;;;21.20;99.90;;;;;;5001740;28;20080;-82
2022/07/04 11:47:32;;;;;;;3.92;0.60;;;21.50;99.90;;;;;;5017528;28;20324;-81
2022/07/04 11:49:59;;;;;;;0.68;0.40;;;21.80;99.90;;;;;;5001228;28;20053;-81
2022/07/04 11:52:38;;;;;;;0.65;0.45;;;22.00;99.90;;;;;;5001413;28;20045;-82
2022/07/04 11:55:05;;;;;;;0.63;0.60;;;22.20;99.90;;;;;;5001248;28;20046;-81
2022/07/04 11:57:39;;;;;;;0.32;0.28;;;22.00;99.90;;;;;;5017605;28;20080;-79
2022/07/04 12:00:10;;;;;;;0.30;0.30;;;22.10;99.90;;;;;;5017431;28;20463;-82
2022/07/04 12:02:37;;;;;;;0.22;0.22;;;22.10;99.90;;;;;;5000996;28;20133;-81
2022/07/04 12:05:05;;;;;;;2.80;0.40;;;22.20;99.90;;;;;;5017510;28;20033;-81
2022/07/04 12:07:33;;;;;;;0.80;0.38;;;22.10;99.90;;;;;;5017257;28;20124;-80
2022/07/04 12:10:12;;;;;;;0.30;0.30;;;21.90;99.90;;;;;;5000597;28;20053;-81
2022/07/04 12:12:52;;;;;;;0.70;0.30;;;21.80;99.90;;;;;;5000764;28;20477;-82
2022/07/04 12:15:18;;;;;;;1.67;0.60;;;21.90;99.90;;;;;;5000647;28;20042;-81
2022/07/04 12:17:44;;;;;;;2.38;0.40;;;21.80;99.90;;;;;;5000684;28;20041;-81
2022/07/04 12:20:17;;;;;;;0.47;0.45;;;21.90;99.90;;;;;;5000658;28;20045;-81
2022/07/04 12:22:57;;;;;;;0.57;0.40;;;22.10;99.90;;;;;;5001834;28;20120;-81
2022/07/04 12:25:27;;;;;;;1.27;0.65;;;22.00;99.90;;;;;;5000617;28;20048;-82
2022/07/04 12:27:55;;;;;;;1.33;0.50;;;21.90;99.90;;;;;;5016834;28;20048;-82
2022/07/04 12:30:21;;;;;;;0.85;0.60;;;21.80;99.90;;;;;;5017019;28;20397;-82
2022/07/04 12:32:50;;;;;;;1.15;0.65;;;21.80;99.90;;;;;;5000620;28;20435;-81
2022/07/04 12:35:58;;;;;;;0.30;0.28;;;21.80;99.90;;;;;;5016527;28;20042;-72
2022/07/04 12:38:27;;;;;;;0.40;0.40;;;21.90;99.90;;;;;;4937987;29;20083;-72
2022/07/04 12:40:56;;;;;;;1.05;0.60;;;22.00;99.90;;;;;;5005806;28;20505;-72
2022/07/04 12:43:44;;;;;;;0.85;0.40;;;21.90;99.90;;;;;;5000198;28;20452;-71
2022/07/04 12:46:32;;;;;;;1.35;0.57;;;21.60;99.90;;;;;;5016547;28;20041;-72
2022/07/04 12:48:59;;;;;;;0.30;0.30;;;21.90;99.90;;;;;;5016431;28;20101;-72
2022/07/04 12:51:26;;;;;;;1.98;0.65;;;21.80;99.90;;;;;;5016690;28;20455;-72
2022/07/04 12:53:53;;;;;;;0.70;0.50;;;21.80;99.90;;;;;;4999897;28;20103;-72
2022/07/04 12:56:40;;;;;;;1.15;0.50;;;21.90;99.90;;;;;;5016499;28;20396;-71
2022/07/04 12:59:07;;;;;;;0.68;0.32;;;21.90;99.90;;;;;;5016520;28;20535;-71
2022/07/04 13:01:34;;;;;;;0.60;0.40;;;21.80;99.90;;;;;;5016152;28;20042;-71
2022/07/04 13:04:01;;;;;;;0.50;0.50;;;21.70;99.90;;;;;;5016138;28;20124;-71
2022/07/04 13:06:27;;;;;;;2.97;0.50;;;21.70;99.90;;;;;;5016087;28;20038;-71